PWSweather.com
Personal Weather Stations
Station Observations
KOHAVON11
Long Road Station, Avon, OH 44011

Long Road StationAvon, OH 44011

Lat: 41.437, Lon: -82.0477

Elevation: 686

Station Type: Davis Vantage Pro2

http://www.avon-weather.com

High Low Average
Temperature 59.4°F15.2°C 30.9°F-0.6°C 38.0°F3.3°C
Dew Point 55.8°F13.2°C 15.7°F-9.1°C 27.9°F-2.3°C
Winds 39.0 mph 62.8 kmh 4.0 mph 6.4 kmh 13.0 mph WSW20.9 kmh WSW
Wind Gusts 46.0 mph74.0 kmh 16.0 mph25.7 kmh 27.0 mph43.5 kmh
Humidity 88% 53% 67%
Pressure 30.19 in1022.4 mb 29.36 in994.2 mb -
Precipitation 0.05 in1.3 mm - -
Hour Temp Dew Point Humidity Winds Wind Gusts Pressure Precip Precip Rate Daily Precip Total
12:00 AM 58.1°F14.5°C 54.8°F12.7°C 89% 19.0 mph S30.6 kmh S 28.0 mph45.1 kmh 29.39 in995.3 mb 0.07 in1.8 mm 0.00 in0.0 mm 0.07 in1.8 mm
12:05 AM 58.3°F14.6°C 55.0°F12.8°C 89% 25.0 mph S40.2 kmh S 28.0 mph45.1 kmh 29.39 in995.3 mb 0.06 in1.5 mm 0.00 in0.0 mm 0.07 in1.8 mm
12:10 AM 58.5°F14.7°C 55.2°F12.9°C 89% 17.0 mph SSW27.4 kmh SSW 28.0 mph45.1 kmh 29.38 in994.9 mb 0.06 in1.5 mm 0.00 in0.0 mm 0.07 in1.8 mm
12:15 AM 58.7°F14.8°C 55.4°F13.0°C 89% 13.0 mph SW20.9 kmh SW 28.0 mph45.1 kmh 29.37 in994.6 mb 0.06 in1.5 mm 0.00 in0.0 mm 0.07 in1.8 mm
12:20 AM 58.8°F14.9°C 55.5°F13.1°C 89% 13.0 mph S20.9 kmh S 22.0 mph35.4 kmh 29.37 in994.6 mb 0.06 in1.5 mm 0.00 in0.0 mm 0.07 in1.8 mm
12:25 AM 59.0°F15.0°C 55.4°F13.0°C 88% 7.0 mph SSW11.3 kmh SSW 22.0 mph35.4 kmh 29.38 in994.9 mb 0.05 in1.3 mm 0.00 in0.0 mm 0.07 in1.8 mm
12:30 AM 59.2°F15.1°C 55.6°F13.1°C 88% 15.0 mph SW24.1 kmh SW 19.0 mph30.6 kmh 29.38 in994.9 mb 0.00 in0.0 mm 0.00 in0.0 mm 0.07 in1.8 mm
12:35 AM 59.2°F15.1°C 55.6°F13.1°C 88% 16.0 mph S25.7 kmh S 19.0 mph30.6 kmh 29.38 in994.9 mb 0.00 in0.0 mm 0.00 in0.0 mm 0.07 in1.8 mm
12:40 AM 59.2°F15.1°C 55.6°F13.1°C 88% 9.0 mph SSW14.5 kmh SSW 22.0 mph35.4 kmh 29.37 in994.6 mb 0.00 in0.0 mm 0.00 in0.0 mm 0.07 in1.8 mm
12:45 AM 59.3°F15.2°C 55.7°F13.2°C 88% 13.0 mph S20.9 kmh S 22.0 mph35.4 kmh 29.37 in994.6 mb 0.00 in0.0 mm 0.00 in0.0 mm 0.07 in1.8 mm
12:50 AM 59.3°F15.2°C 55.7°F13.2°C 88% 14.0 mph SSE22.5 kmh SSE 22.0 mph35.4 kmh 29.37 in994.6 mb 0.00 in0.0 mm 0.00 in0.0 mm 0.07 in1.8 mm
12:55 AM 59.3°F15.2°C 55.7°F13.2°C 88% 9.0 mph SSE14.5 kmh SSE 22.0 mph35.4 kmh 29.37 in994.6 mb 0.00 in0.0 mm 0.00 in0.0 mm 0.07 in1.8 mm
01:00 AM 59.3°F15.2°C 55.7°F13.2°C 88% 12.0 mph SSW19.3 kmh SSW 18.0 mph29.0 kmh 29.37 in994.6 mb 0.00 in0.0 mm 0.00 in0.0 mm 0.02 in0.5 mm
01:05 AM 59.4°F15.2°C 55.8°F13.2°C 88% 15.0 mph S24.1 kmh S 19.0 mph30.6 kmh 29.37 in994.6 mb 0.00 in0.0 mm 0.00 in0.0 mm 0.02 in0.5 mm
01:10 AM 59.4°F15.2°C 55.8°F13.2°C 88% 15.0 mph S24.1 kmh S 19.0 mph30.6 kmh 29.36 in994.2 mb 0.00 in0.0 mm 0.00 in0.0 mm 0.02 in0.5 mm
01:15 AM 59.4°F15.2°C 55.5°F13.1°C 87% 12.0 mph SSW19.3 kmh SSW 19.0 mph30.6 kmh 29.37 in994.6 mb 0.00 in0.0 mm 0.00 in0.0 mm 0.02 in0.5 mm
01:20 AM 59.4°F15.2°C 55.5°F13.1°C 87% 17.0 mph S27.4 kmh S 21.0 mph33.8 kmh 29.37 in994.6 mb 0.00 in0.0 mm 0.00 in0.0 mm 0.02 in0.5 mm
01:25 AM 59.4°F15.2°C 55.5°F13.1°C 87% 13.0 mph SW20.9 kmh SW 21.0 mph33.8 kmh 29.37 in994.6 mb 0.00 in0.0 mm 0.00 in0.0 mm 0.02 in0.5 mm
01:30 AM 59.4°F15.2°C 55.5°F13.1°C 87% 18.0 mph SW29.0 kmh SW 21.0 mph33.8 kmh 29.37 in994.6 mb 0.00 in0.0 mm 0.00 in0.0 mm 0.02 in0.5 mm
01:35 AM 59.4°F15.2°C 55.8°F13.2°C 88% 14.0 mph SW22.5 kmh SW 21.0 mph33.8 kmh 29.36 in994.2 mb 0.00 in0.0 mm 0.00 in0.0 mm 0.02 in0.5 mm
01:40 AM 59.4°F15.2°C 55.8°F13.2°C 88% 14.0 mph SW22.5 kmh SW 18.0 mph29.0 kmh 29.36 in994.2 mb 0.00 in0.0 mm 0.00 in0.0 mm 0.03 in0.8 mm
01:45 AM 59.4°F15.2°C 55.8°F13.2°C 88% 6.0 mph SSW9.7 kmh SSW 18.0 mph29.0 kmh 29.36 in994.2 mb 0.15 in3.8 mm 1.80 in45.7 mm 0.04 in1.0 mm
01:50 AM 59.3°F15.2°C 55.7°F13.2°C 88% 24.0 mph WSW38.6 kmh WSW 24.0 mph38.6 kmh 29.39 in995.3 mb 0.07 in1.8 mm 0.00 in0.0 mm 0.05 in1.3 mm
01:55 AM 58.6°F14.8°C 54.7°F12.6°C 87% 19.0 mph WSW30.6 kmh WSW 33.0 mph53.1 kmh 29.40 in995.6 mb 0.07 in1.8 mm 0.00 in0.0 mm 0.05 in1.3 mm
02:00 AM 57.2°F14.0°C 53.0°F11.7°C 86% 25.0 mph W40.2 kmh W 33.0 mph53.1 kmh 29.41 in995.9 mb 0.06 in1.5 mm 0.00 in0.0 mm 0.05 in1.3 mm
02:05 AM 55.9°F13.3°C 51.4°F10.8°C 85% 15.0 mph W24.1 kmh W 33.0 mph53.1 kmh 29.40 in995.6 mb 0.04 in1.0 mm 0.00 in0.0 mm 0.05 in1.3 mm
02:10 AM 54.9°F12.7°C 50.4°F10.2°C 85% 13.0 mph WSW20.9 kmh WSW 33.0 mph53.1 kmh 29.40 in995.6 mb 0.00 in0.0 mm 0.00 in0.0 mm 0.05 in1.3 mm
02:15 AM 54.2°F12.3°C 50.1°F10.1°C 86% 21.0 mph W33.8 kmh W 27.0 mph43.5 kmh 29.41 in995.9 mb 0.00 in0.0 mm 0.00 in0.0 mm 0.05 in1.3 mm
02:20 AM 53.5°F11.9°C 49.1°F9.5°C 85% 14.0 mph WSW22.5 kmh WSW 30.0 mph48.3 kmh 29.41 in995.9 mb 0.00 in0.0 mm 0.00 in0.0 mm 0.05 in1.3 mm
02:25 AM 53.0°F11.7°C 48.6°F9.2°C 85% 15.0 mph W24.1 kmh W 30.0 mph48.3 kmh 29.41 in995.9 mb 0.00 in0.0 mm 0.00 in0.0 mm 0.05 in1.3 mm
02:30 AM 52.6°F11.4°C 48.2°F9.0°C 85% 16.0 mph WSW25.7 kmh WSW 30.0 mph48.3 kmh 29.41 in995.9 mb 0.00 in0.0 mm 0.00 in0.0 mm 0.05 in1.3 mm
02:35 AM 52.3°F11.3°C 47.9°F8.8°C 85% 11.0 mph W17.7 kmh W 30.0 mph48.3 kmh 29.41 in995.9 mb 0.00 in0.0 mm 0.00 in0.0 mm 0.05 in1.3 mm
02:40 AM 51.7°F10.9°C 47.0°F8.3°C 84% 6.0 mph WSW9.7 kmh WSW 28.0 mph45.1 kmh 29.41 in995.9 mb 0.00 in0.0 mm 0.00 in0.0 mm 0.05 in1.3 mm
02:45 AM 51.3°F10.7°C 46.6°F8.1°C 84% 12.0 mph WSW19.3 kmh WSW 28.0 mph45.1 kmh 29.42 in996.3 mb 0.00 in0.0 mm 0.00 in0.0 mm 0.05 in1.3 mm
02:50 AM 50.9°F10.5°C 46.2°F7.9°C 84% 7.0 mph WSW11.3 kmh WSW 20.0 mph32.2 kmh 29.42 in996.3 mb 0.00 in0.0 mm 0.00 in0.0 mm 0.05 in1.3 mm
02:55 AM 50.6°F10.3°C 45.9°F7.7°C 84% 10.0 mph WSW16.1 kmh WSW 20.0 mph32.2 kmh 29.43 in996.6 mb 0.00 in0.0 mm 0.00 in0.0 mm 0.05 in1.3 mm
03:00 AM 50.3°F10.2°C 45.6°F7.6°C 84% 17.0 mph WNW27.4 kmh WNW 17.0 mph27.4 kmh 29.43 in996.6 mb 0.00 in0.0 mm 0.00 in0.0 mm 0.05 in1.3 mm
03:05 AM 49.8°F9.9°C 44.8°F7.1°C 83% 13.0 mph WSW20.9 kmh WSW 26.0 mph41.8 kmh 29.43 in996.6 mb 0.00 in0.0 mm 0.00 in0.0 mm 0.05 in1.3 mm
03:10 AM 49.5°F9.7°C 44.2°F6.8°C 82% 13.0 mph WSW20.9 kmh WSW 26.0 mph41.8 kmh 29.43 in996.6 mb 0.00 in0.0 mm 0.00 in0.0 mm 0.05 in1.3 mm
03:15 AM 49.3°F9.6°C 44.3°F6.8°C 83% 6.0 mph WSW9.7 kmh WSW 26.0 mph41.8 kmh 29.43 in996.6 mb 0.00 in0.0 mm 0.00 in0.0 mm 0.05 in1.3 mm
03:20 AM 49.0°F9.4°C 43.7°F6.5°C 82% 7.0 mph SW11.3 kmh SW 26.0 mph41.8 kmh 29.44 in997.0 mb 0.00 in0.0 mm 0.00 in0.0 mm 0.05 in1.3 mm
03:25 AM 48.8°F9.3°C 43.5°F6.4°C 82% 7.0 mph W11.3 kmh W 24.0 mph38.6 kmh 29.44 in997.0 mb 0.00 in0.0 mm 0.00 in0.0 mm 0.05 in1.3 mm
03:30 AM 48.6°F9.2°C 43.3°F6.3°C 82% 11.0 mph SW17.7 kmh SW 24.0 mph38.6 kmh 29.44 in997.0 mb 0.00 in0.0 mm 0.00 in0.0 mm 0.05 in1.3 mm
03:35 AM 48.5°F9.2°C 43.5°F6.4°C 83% 8.0 mph SW12.9 kmh SW 16.0 mph25.7 kmh 29.44 in997.0 mb 0.00 in0.0 mm 0.00 in0.0 mm 0.05 in1.3 mm
03:40 AM 48.2°F9.0°C 43.2°F6.2°C 83% 17.0 mph SW27.4 kmh SW 20.0 mph32.2 kmh 29.44 in997.0 mb 0.00 in0.0 mm 0.00 in0.0 mm 0.05 in1.3 mm
03:45 AM 47.9°F8.8°C 42.6°F5.9°C 82% 18.0 mph WSW29.0 kmh WSW 20.0 mph32.2 kmh 29.45 in997.3 mb 0.00 in0.0 mm 0.00 in0.0 mm 0.05 in1.3 mm
03:50 AM 47.5°F8.6°C 42.2°F5.7°C 82% 9.0 mph SW14.5 kmh SW 20.0 mph32.2 kmh 29.45 in997.3 mb 0.00 in0.0 mm 0.00 in0.0 mm 0.05 in1.3 mm
03:55 AM 47.0°F8.3°C 41.7°F5.4°C 82% 10.0 mph WSW16.1 kmh WSW 20.0 mph32.2 kmh 29.45 in997.3 mb 0.00 in0.0 mm 0.00 in0.0 mm 0.05 in1.3 mm
04:00 AM 46.6°F8.1°C 41.3°F5.2°C 82% 6.0 mph WSW9.7 kmh WSW 20.0 mph32.2 kmh 29.46 in997.6 mb 0.00 in0.0 mm 0.00 in0.0 mm 0.05 in1.3 mm
04:05 AM 46.2°F7.9°C 40.6°F4.8°C 81% 10.0 mph WSW16.1 kmh WSW 28.0 mph45.1 kmh 29.47 in998.0 mb 0.00 in0.0 mm 0.00 in0.0 mm 0.05 in1.3 mm
04:10 AM 45.7°F7.6°C 39.8°F4.3°C 80% 8.0 mph WSW12.9 kmh WSW 28.0 mph45.1 kmh 29.47 in998.0 mb 0.00 in0.0 mm 0.00 in0.0 mm 0.05 in1.3 mm
04:15 AM 45.4°F7.4°C 39.5°F4.2°C 80% 15.0 mph WSW24.1 kmh WSW 28.0 mph45.1 kmh 29.47 in998.0 mb 0.00 in0.0 mm 0.00 in0.0 mm 0.05 in1.3 mm
04:20 AM 45.0°F7.2°C 39.1°F3.9°C 80% 10.0 mph WSW16.1 kmh WSW 28.0 mph45.1 kmh 29.48 in998.3 mb 0.00 in0.0 mm 0.00 in0.0 mm 0.05 in1.3 mm
04:25 AM 44.7°F7.1°C 38.9°F3.8°C 80% 12.0 mph WSW19.3 kmh WSW 21.0 mph33.8 kmh 29.48 in998.3 mb 0.00 in0.0 mm 0.00 in0.0 mm 0.05 in1.3 mm
04:30 AM 44.1°F6.7°C 37.9°F3.3°C 79% 14.0 mph SSW22.5 kmh SSW 25.0 mph40.2 kmh 29.49 in998.6 mb 0.00 in0.0 mm 0.00 in0.0 mm 0.05 in1.3 mm
04:35 AM 43.6°F6.4°C 37.5°F3.1°C 79% 21.0 mph WSW33.8 kmh WSW 25.0 mph40.2 kmh 29.49 in998.6 mb 0.00 in0.0 mm 0.00 in0.0 mm 0.05 in1.3 mm
04:40 AM 43.3°F6.3°C 37.2°F2.9°C 79% 12.0 mph WSW19.3 kmh WSW 26.0 mph41.8 kmh 29.49 in998.6 mb 0.00 in0.0 mm 0.00 in0.0 mm 0.05 in1.3 mm
04:45 AM 43.1°F6.2°C 37.0°F2.8°C 79% 14.0 mph WSW22.5 kmh WSW 26.0 mph41.8 kmh 29.50 in999.0 mb 0.00 in0.0 mm 0.00 in0.0 mm 0.05 in1.3 mm
04:50 AM 42.8°F6.0°C 36.7°F2.6°C 79% 9.0 mph WSW14.5 kmh WSW 28.0 mph45.1 kmh 29.50 in999.0 mb 0.00 in0.0 mm 0.00 in0.0 mm 0.05 in1.3 mm
04:55 AM 42.5°F5.8°C 36.4°F2.4°C 79% 15.0 mph W24.1 kmh W 28.0 mph45.1 kmh 29.51 in999.3 mb 0.00 in0.0 mm 0.00 in0.0 mm 0.05 in1.3 mm
05:00 AM 42.3°F5.7°C 36.5°F2.5°C 80% 7.0 mph WSW11.3 kmh WSW 28.0 mph45.1 kmh 29.51 in999.3 mb 0.00 in0.0 mm 0.00 in0.0 mm 0.05 in1.3 mm
05:05 AM 41.9°F5.5°C 36.1°F2.3°C 80% 22.0 mph WSW35.4 kmh WSW 28.0 mph45.1 kmh 29.52 in999.7 mb 0.00 in0.0 mm 0.00 in0.0 mm 0.05 in1.3 mm
05:10 AM 41.6°F5.3°C 35.8°F2.1°C 80% 16.0 mph WSW25.7 kmh WSW 28.0 mph45.1 kmh 29.51 in999.3 mb 0.00 in0.0 mm 0.00 in0.0 mm 0.05 in1.3 mm
05:15 AM 41.3°F5.2°C 35.9°F2.2°C 81% 18.0 mph SW29.0 kmh SW 28.0 mph45.1 kmh 29.52 in999.7 mb 0.00 in0.0 mm 0.00 in0.0 mm 0.05 in1.3 mm
05:20 AM 41.1°F5.1°C 35.7°F2.1°C 81% 15.0 mph WSW24.1 kmh WSW 28.0 mph45.1 kmh 29.52 in999.7 mb 0.00 in0.0 mm 0.00 in0.0 mm 0.05 in1.3 mm
05:25 AM 40.9°F4.9°C 35.8°F2.1°C 82% 8.0 mph WSW12.9 kmh WSW 26.0 mph41.8 kmh 29.53 in1000.0 mb 0.00 in0.0 mm 0.00 in0.0 mm 0.05 in1.3 mm
05:30 AM 40.8°F4.9°C 35.7°F2.1°C 82% 9.0 mph WSW14.5 kmh WSW 26.0 mph41.8 kmh 29.53 in1000.0 mb 0.00 in0.0 mm 0.00 in0.0 mm 0.05 in1.3 mm
05:35 AM 40.7°F4.8°C 35.6°F2.0°C 82% 9.0 mph SW14.5 kmh SW 22.0 mph35.4 kmh 29.53 in1000.0 mb 0.00 in0.0 mm 0.00 in0.0 mm 0.05 in1.3 mm
05:40 AM 40.5°F4.7°C 35.4°F1.9°C 82% 17.0 mph WSW27.4 kmh WSW 33.0 mph53.1 kmh 29.54 in1000.3 mb 0.00 in0.0 mm 0.00 in0.0 mm 0.05 in1.3 mm
05:45 AM 40.4°F4.7°C 35.3°F1.8°C 82% 10.0 mph SW16.1 kmh SW 33.0 mph53.1 kmh 29.54 in1000.3 mb 0.00 in0.0 mm 0.00 in0.0 mm 0.05 in1.3 mm
05:50 AM 40.2°F4.6°C 34.8°F1.6°C 81% 12.0 mph WSW19.3 kmh WSW 33.0 mph53.1 kmh 29.54 in1000.3 mb 0.00 in0.0 mm 0.00 in0.0 mm 0.05 in1.3 mm
05:55 AM 40.1°F4.5°C 34.4°F1.3°C 80% 14.0 mph SW22.5 kmh SW 33.0 mph53.1 kmh 29.55 in1000.7 mb 0.00 in0.0 mm 0.00 in0.0 mm 0.05 in1.3 mm
06:00 AM 40.1°F4.5°C 33.7°F0.9°C 78% 11.0 mph SW17.7 kmh SW 34.0 mph54.7 kmh 29.55 in1000.7 mb 0.00 in0.0 mm 0.00 in0.0 mm 0.05 in1.3 mm
06:05 AM 40.1°F4.5°C 32.7°F0.4°C 75% 8.0 mph SW12.9 kmh SW 34.0 mph54.7 kmh 29.56 in1001.0 mb 0.00 in0.0 mm 0.00 in0.0 mm 0.05 in1.3 mm
06:10 AM 40.0°F4.4°C 33.0°F0.6°C 76% 14.0 mph WSW22.5 kmh WSW 34.0 mph54.7 kmh 29.56 in1001.0 mb 0.00 in0.0 mm 0.00 in0.0 mm 0.05 in1.3 mm
06:15 AM 39.9°F4.4°C 32.5°F0.3°C 75% 19.0 mph WSW30.6 kmh WSW 34.0 mph54.7 kmh 29.57 in1001.4 mb 0.00 in0.0 mm 0.00 in0.0 mm 0.05 in1.3 mm
06:20 AM 39.8°F4.3°C 31.8°F-0.1°C 73% 11.0 mph W17.7 kmh W 28.0 mph45.1 kmh 29.57 in1001.4 mb 0.00 in0.0 mm 0.00 in0.0 mm 0.05 in1.3 mm
06:25 AM 39.8°F4.3°C 31.4°F-0.3°C 72% 10.0 mph SW16.1 kmh SW 28.0 mph45.1 kmh 29.57 in1001.4 mb 0.00 in0.0 mm 0.00 in0.0 mm 0.05 in1.3 mm
06:30 AM 39.7°F4.3°C 30.6°F-0.8°C 70% 12.0 mph W19.3 kmh W 28.0 mph45.1 kmh 29.57 in1001.4 mb 0.00 in0.0 mm 0.00 in0.0 mm 0.05 in1.3 mm
06:35 AM 39.7°F4.3°C 30.2°F-1.0°C 69% 22.0 mph WSW35.4 kmh WSW 28.0 mph45.1 kmh 29.57 in1001.4 mb 0.00 in0.0 mm 0.00 in0.0 mm 0.05 in1.3 mm
06:40 AM 39.5°F4.2°C 30.0°F-1.1°C 69% 15.0 mph WSW24.1 kmh WSW 27.0 mph43.5 kmh 29.57 in1001.4 mb 0.00 in0.0 mm 0.00 in0.0 mm 0.05 in1.3 mm
06:45 AM 39.3°F4.1°C 29.8°F-1.2°C 69% 18.0 mph 29.0 kmh 28.0 mph45.1 kmh 29.58 in1001.7 mb 0.00 in0.0 mm 0.00 in0.0 mm 0.05 in1.3 mm
06:50 AM 39.0°F3.9°C 29.9°F-1.2°C 70% 12.0 mph W19.3 kmh W 28.0 mph45.1 kmh 29.58 in1001.7 mb 0.00 in0.0 mm 0.00 in0.0 mm 0.05 in1.3 mm
06:55 AM 38.8°F3.8°C 29.7°F-1.3°C 70% 10.0 mph WSW16.1 kmh WSW 28.0 mph45.1 kmh 29.59 in1002.0 mb 0.00 in0.0 mm 0.00 in0.0 mm 0.05 in1.3 mm
07:00 AM 38.6°F3.7°C 29.9°F-1.2°C 71% 5.0 mph SW8.0 kmh SW 28.0 mph45.1 kmh 29.59 in1002.0 mb 0.00 in0.0 mm 0.00 in0.0 mm 0.05 in1.3 mm
07:05 AM 38.6°F3.7°C 29.9°F-1.2°C 71% 8.0 mph SW12.9 kmh SW 24.0 mph38.6 kmh 29.59 in1002.0 mb 0.00 in0.0 mm 0.00 in0.0 mm 0.05 in1.3 mm
07:10 AM 38.6°F3.7°C 29.9°F-1.2°C 71% 15.0 mph SW24.1 kmh SW 30.0 mph48.3 kmh 29.59 in1002.0 mb 0.00 in0.0 mm 0.00 in0.0 mm 0.05 in1.3 mm
07:15 AM 38.5°F3.6°C 29.8°F-1.2°C 71% 9.0 mph SW14.5 kmh SW 30.0 mph48.3 kmh 29.60 in1002.4 mb 0.00 in0.0 mm 0.00 in0.0 mm 0.05 in1.3 mm
07:20 AM 38.4°F3.6°C 29.7°F-1.3°C 71% 10.0 mph WSW16.1 kmh WSW 30.0 mph48.3 kmh 29.60 in1002.4 mb 0.00 in0.0 mm 0.00 in0.0 mm 0.05 in1.3 mm
07:25 AM 38.3°F3.5°C 29.6°F-1.3°C 71% 20.0 mph WSW32.2 kmh WSW 30.0 mph48.3 kmh 29.60 in1002.4 mb 0.00 in0.0 mm 0.00 in0.0 mm 0.05 in1.3 mm
07:30 AM 38.2°F3.4°C 29.5°F-1.4°C 71% 8.0 mph WSW12.9 kmh WSW 26.0 mph41.8 kmh 29.60 in1002.4 mb 0.00 in0.0 mm 0.00 in0.0 mm 0.05 in1.3 mm
07:35 AM 38.1°F3.4°C 29.4°F-1.4°C 71% 4.0 mph WSW6.4 kmh WSW 26.0 mph41.8 kmh 29.61 in1002.7 mb 0.00 in0.0 mm 0.00 in0.0 mm 0.05 in1.3 mm
07:40 AM 38.1°F3.4°C 29.4°F-1.4°C 71% 12.0 mph WSW19.3 kmh WSW 22.0 mph35.4 kmh 29.61 in1002.7 mb 0.00 in0.0 mm 0.00 in0.0 mm 0.05 in1.3 mm
07:45 AM 38.1°F3.4°C 29.4°F-1.4°C 71% 10.0 mph SW16.1 kmh SW 22.0 mph35.4 kmh 29.61 in1002.7 mb 0.00 in0.0 mm 0.00 in0.0 mm 0.05 in1.3 mm
07:50 AM 38.1°F3.4°C 29.4°F-1.4°C 71% 30.0 mph WSW48.3 kmh WSW 30.0 mph48.3 kmh 29.61 in1002.7 mb 0.00 in0.0 mm 0.00 in0.0 mm 0.05 in1.3 mm
07:55 AM 38.1°F3.4°C 29.8°F-1.2°C 72% 15.0 mph WSW24.1 kmh WSW 36.0 mph57.9 kmh 29.62 in1003.0 mb 0.00 in0.0 mm 0.00 in0.0 mm 0.05 in1.3 mm
08:00 AM 38.0°F3.3°C 30.0°F-1.1°C 73% 14.0 mph SW22.5 kmh SW 36.0 mph57.9 kmh 29.61 in1002.7 mb 0.00 in0.0 mm 0.00 in0.0 mm 0.05 in1.3 mm
08:05 AM 37.7°F3.2°C 30.1°F-1.1°C 74% 19.0 mph SW30.6 kmh SW 36.0 mph57.9 kmh 29.62 in1003.0 mb 0.00 in0.0 mm 0.00 in0.0 mm 0.05 in1.3 mm
08:10 AM 37.5°F3.1°C 29.9°F-1.2°C 74% 23.0 mph WSW37.0 kmh WSW 36.0 mph57.9 kmh 29.62 in1003.0 mb 0.00 in0.0 mm 0.00 in0.0 mm 0.05 in1.3 mm
08:15 AM 37.4°F3.0°C 29.8°F-1.2°C 74% 15.0 mph WSW24.1 kmh WSW 32.0 mph51.5 kmh 29.62 in1003.0 mb 0.00 in0.0 mm 0.00 in0.0 mm 0.05 in1.3 mm
08:20 AM 37.4°F3.0°C 29.4°F-1.4°C 73% 30.0 mph WSW48.3 kmh WSW 39.0 mph62.8 kmh 29.63 in1003.4 mb 0.00 in0.0 mm 0.00 in0.0 mm 0.05 in1.3 mm
08:25 AM 37.4°F3.0°C 29.4°F-1.4°C 73% 17.0 mph W27.4 kmh W 39.0 mph62.8 kmh 29.63 in1003.4 mb 0.00 in0.0 mm 0.00 in0.0 mm 0.05 in1.3 mm
08:30 AM 37.3°F2.9°C 29.4°F-1.4°C 73% 26.0 mph WSW41.8 kmh WSW 39.0 mph62.8 kmh 29.63 in1003.4 mb 0.00 in0.0 mm 0.00 in0.0 mm 0.05 in1.3 mm
08:35 AM 37.4°F3.0°C 29.4°F-1.4°C 73% 17.0 mph W27.4 kmh W 39.0 mph62.8 kmh 29.64 in1003.7 mb 0.00 in0.0 mm 0.00 in0.0 mm 0.05 in1.3 mm
08:40 AM 37.3°F2.9°C 29.4°F-1.4°C 73% 19.0 mph W30.6 kmh W 41.0 mph66.0 kmh 29.64 in1003.7 mb 0.00 in0.0 mm 0.00 in0.0 mm 0.05 in1.3 mm
08:45 AM 37.3°F2.9°C 29.0°F-1.7°C 72% 25.0 mph W40.2 kmh W 42.0 mph67.6 kmh 29.64 in1003.7 mb 0.00 in0.0 mm 0.00 in0.0 mm 0.05 in1.3 mm
08:50 AM 37.3°F2.9°C 29.0°F-1.7°C 72% 13.0 mph W20.9 kmh W 42.0 mph67.6 kmh 29.65 in1004.1 mb 0.00 in0.0 mm 0.00 in0.0 mm 0.05 in1.3 mm
08:55 AM 37.3°F2.9°C 28.7°F-1.8°C 71% 14.0 mph WSW22.5 kmh WSW 42.0 mph67.6 kmh 29.65 in1004.1 mb 0.00 in0.0 mm 0.00 in0.0 mm 0.05 in1.3 mm
09:00 AM 37.3°F2.9°C 29.0°F-1.7°C 72% 18.0 mph WSW29.0 kmh WSW 42.0 mph67.6 kmh 29.65 in1004.1 mb 0.00 in0.0 mm 0.00 in0.0 mm 0.05 in1.3 mm
09:05 AM 37.3°F2.9°C 28.7°F-1.8°C 71% 15.0 mph WSW24.1 kmh WSW 27.0 mph43.5 kmh 29.64 in1003.7 mb 0.00 in0.0 mm 0.00 in0.0 mm 0.05 in1.3 mm
09:10 AM 37.4°F3.0°C 28.7°F-1.8°C 71% 29.0 mph SW46.7 kmh SW 35.0 mph56.3 kmh 29.65 in1004.1 mb 0.00 in0.0 mm 0.00 in0.0 mm 0.05 in1.3 mm
09:15 AM 37.7°F3.2°C 28.7°F-1.8°C 70% 30.0 mph WSW48.3 kmh WSW 36.0 mph57.9 kmh 29.64 in1003.7 mb 0.00 in0.0 mm 0.00 in0.0 mm 0.05 in1.3 mm
09:20 AM 38.1°F3.4°C 29.1°F-1.6°C 70% 25.0 mph WSW40.2 kmh WSW 36.0 mph57.9 kmh 29.64 in1003.7 mb 0.00 in0.0 mm 0.00 in0.0 mm 0.05 in1.3 mm
09:25 AM 38.4°F3.6°C 29.0°F-1.7°C 69% 20.0 mph WSW32.2 kmh WSW 36.0 mph57.9 kmh 29.64 in1003.7 mb 0.00 in0.0 mm 0.00 in0.0 mm 0.05 in1.3 mm
09:30 AM 38.5°F3.6°C 28.7°F-1.8°C 68% 21.0 mph WSW33.8 kmh WSW 36.0 mph57.9 kmh 29.65 in1004.1 mb 0.00 in0.0 mm 0.00 in0.0 mm 0.05 in1.3 mm
09:35 AM 38.6°F3.7°C 28.8°F-1.8°C 68% 22.0 mph W35.4 kmh W 36.0 mph57.9 kmh 29.66 in1004.4 mb 0.00 in0.0 mm 0.00 in0.0 mm 0.05 in1.3 mm
09:40 AM 38.3°F3.5°C 28.2°F-2.1°C 67% 24.0 mph W38.6 kmh W 43.0 mph69.2 kmh 29.66 in1004.4 mb 0.00 in0.0 mm 0.00 in0.0 mm 0.05 in1.3 mm
09:45 AM 38.0°F3.3°C 27.9°F-2.3°C 67% 13.0 mph W20.9 kmh W 43.0 mph69.2 kmh 29.66 in1004.4 mb 0.00 in0.0 mm 0.00 in0.0 mm 0.05 in1.3 mm
09:50 AM 37.7°F3.2°C 27.6°F-2.4°C 67% 17.0 mph WSW27.4 kmh WSW 43.0 mph69.2 kmh 29.67 in1004.7 mb 0.00 in0.0 mm 0.00 in0.0 mm 0.05 in1.3 mm
09:55 AM 37.8°F3.2°C 27.7°F-2.4°C 67% 16.0 mph WSW25.7 kmh WSW 43.0 mph69.2 kmh 29.67 in1004.7 mb 0.00 in0.0 mm 0.00 in0.0 mm 0.05 in1.3 mm
10:00 AM 37.8°F3.2°C 28.0°F-2.2°C 68% 29.0 mph WSW46.7 kmh WSW 34.0 mph54.7 kmh 29.67 in1004.7 mb 0.00 in0.0 mm 0.00 in0.0 mm 0.05 in1.3 mm
10:05 AM 38.0°F3.3°C 27.5°F-2.5°C 66% 26.0 mph WSW41.8 kmh WSW 35.0 mph56.3 kmh 29.68 in1005.1 mb 0.00 in0.0 mm 0.00 in0.0 mm 0.05 in1.3 mm
10:10 AM 38.4°F3.6°C 27.9°F-2.3°C 66% 25.0 mph WSW40.2 kmh WSW 38.0 mph61.2 kmh 29.68 in1005.1 mb 0.00 in0.0 mm 0.00 in0.0 mm 0.05 in1.3 mm
10:15 AM 38.5°F3.6°C 27.6°F-2.4°C 65% 24.0 mph W38.6 kmh W 39.0 mph62.8 kmh 29.68 in1005.1 mb 0.00 in0.0 mm 0.00 in0.0 mm 0.05 in1.3 mm
10:20 AM 38.2°F3.4°C 26.9°F-2.8°C 64% 26.0 mph WSW41.8 kmh WSW 43.0 mph69.2 kmh 29.69 in1005.4 mb 0.00 in0.0 mm 0.00 in0.0 mm 0.05 in1.3 mm
10:25 AM 37.9°F3.3°C 27.0°F-2.8°C 65% 25.0 mph WSW40.2 kmh WSW 43.0 mph69.2 kmh 29.69 in1005.4 mb 0.00 in0.0 mm 0.00 in0.0 mm 0.05 in1.3 mm
10:30 AM 37.8°F3.2°C 26.9°F-2.8°C 65% 24.0 mph WSW38.6 kmh WSW 43.0 mph69.2 kmh 29.70 in1005.8 mb 0.00 in0.0 mm 0.00 in0.0 mm 0.05 in1.3 mm
10:35 AM 37.8°F3.2°C 26.9°F-2.8°C 65% 27.0 mph WSW43.5 kmh WSW 43.0 mph69.2 kmh 29.71 in1006.1 mb 0.00 in0.0 mm 0.00 in0.0 mm 0.05 in1.3 mm
10:40 AM 37.6°F3.1°C 26.7°F-2.9°C 65% 39.0 mph WSW62.8 kmh WSW 39.0 mph62.8 kmh 29.71 in1006.1 mb 0.00 in0.0 mm 0.00 in0.0 mm 0.05 in1.3 mm
10:45 AM 37.2°F2.9°C 26.0°F-3.3°C 64% 18.0 mph W29.0 kmh W 39.0 mph62.8 kmh 29.72 in1006.4 mb 0.00 in0.0 mm 0.00 in0.0 mm 0.05 in1.3 mm
10:50 AM 37.1°F2.8°C 26.3°F-3.2°C 65% 29.0 mph WNW46.7 kmh WNW 39.0 mph62.8 kmh 29.72 in1006.4 mb 0.00 in0.0 mm 0.00 in0.0 mm 0.05 in1.3 mm
10:55 AM 37.1°F2.8°C 26.6°F-3.0°C 66% 21.0 mph WSW33.8 kmh WSW 39.0 mph62.8 kmh 29.73 in1006.8 mb 0.00 in0.0 mm 0.00 in0.0 mm 0.05 in1.3 mm
11:00 AM 37.1°F2.8°C 26.6°F-3.0°C 66% 31.0 mph WSW49.9 kmh WSW 39.0 mph62.8 kmh 29.74 in1007.1 mb 0.00 in0.0 mm 0.00 in0.0 mm 0.05 in1.3 mm
11:05 AM 37.1°F2.8°C 26.3°F-3.2°C 65% 22.0 mph WSW35.4 kmh WSW 35.0 mph56.3 kmh 29.74 in1007.1 mb 0.00 in0.0 mm 0.00 in0.0 mm 0.05 in1.3 mm
11:10 AM 37.0°F2.8°C 26.2°F-3.2°C 65% 22.0 mph WSW35.4 kmh WSW 35.0 mph56.3 kmh 29.74 in1007.1 mb 0.00 in0.0 mm 0.00 in0.0 mm 0.05 in1.3 mm
11:15 AM 36.9°F2.7°C 26.1°F-3.3°C 65% 18.0 mph W29.0 kmh W 35.0 mph56.3 kmh 29.75 in1007.5 mb 0.00 in0.0 mm 0.00 in0.0 mm 0.05 in1.3 mm
11:20 AM 36.8°F2.7°C 26.0°F-3.3°C 65% 17.0 mph W27.4 kmh W 35.0 mph56.3 kmh 29.76 in1007.8 mb 0.00 in0.0 mm 0.00 in0.0 mm 0.05 in1.3 mm
11:25 AM 36.8°F2.7°C 26.4°F-3.1°C 66% 23.0 mph WSW37.0 kmh WSW 35.0 mph56.3 kmh 29.76 in1007.8 mb 0.00 in0.0 mm 0.00 in0.0 mm 0.05 in1.3 mm
11:30 AM 36.7°F2.6°C 26.3°F-3.2°C 66% 30.0 mph WSW48.3 kmh WSW 46.0 mph74.0 kmh 29.77 in1008.1 mb 0.00 in0.0 mm 0.00 in0.0 mm 0.05 in1.3 mm
11:35 AM 36.4°F2.4°C 26.0°F-3.3°C 66% 30.0 mph W48.3 kmh W 46.0 mph74.0 kmh 29.77 in1008.1 mb 0.00 in0.0 mm 0.00 in0.0 mm 0.05 in1.3 mm
11:40 AM 36.3°F2.4°C 25.9°F-3.4°C 66% 18.0 mph W29.0 kmh W 46.0 mph74.0 kmh 29.78 in1008.5 mb 0.00 in0.0 mm 0.00 in0.0 mm 0.05 in1.3 mm
11:45 AM 36.3°F2.4°C 25.5°F-3.6°C 65% 13.0 mph WSW20.9 kmh WSW 46.0 mph74.0 kmh 29.78 in1008.5 mb 0.00 in0.0 mm 0.00 in0.0 mm 0.05 in1.3 mm
11:50 AM 36.5°F2.5°C 25.7°F-3.5°C 65% 20.0 mph W32.2 kmh W 32.0 mph51.5 kmh 29.79 in1008.8 mb 0.00 in0.0 mm 0.00 in0.0 mm 0.05 in1.3 mm
11:55 AM 36.4°F2.4°C 25.6°F-3.6°C 65% 12.0 mph WSW19.3 kmh WSW 32.0 mph51.5 kmh 29.79 in1008.8 mb 0.00 in0.0 mm 0.00 in0.0 mm 0.05 in1.3 mm
12:00 PM 36.6°F2.6°C 25.8°F-3.4°C 65% 21.0 mph WNW33.8 kmh WNW 29.0 mph46.7 kmh 29.79 in1008.8 mb 0.00 in0.0 mm 0.00 in0.0 mm 0.05 in1.3 mm
12:05 PM 36.5°F2.5°C 24.9°F-3.9°C 63% 18.0 mph WSW29.0 kmh WSW 29.0 mph46.7 kmh 29.80 in1009.1 mb 0.00 in0.0 mm 0.00 in0.0 mm 0.05 in1.3 mm
12:10 PM 36.4°F2.4°C 25.2°F-3.8°C 64% 11.0 mph W17.7 kmh W 25.0 mph40.2 kmh 29.81 in1009.5 mb 0.00 in0.0 mm 0.00 in0.0 mm 0.05 in1.3 mm
12:15 PM 36.5°F2.5°C 25.3°F-3.7°C 64% 9.0 mph WSW14.5 kmh WSW 27.0 mph43.5 kmh 29.81 in1009.5 mb 0.00 in0.0 mm 0.00 in0.0 mm 0.05 in1.3 mm
12:20 PM 36.4°F2.4°C 24.8°F-4.0°C 63% 11.0 mph W17.7 kmh W 27.0 mph43.5 kmh 29.81 in1009.5 mb 0.00 in0.0 mm 0.00 in0.0 mm 0.05 in1.3 mm
12:25 PM 36.2°F2.3°C 25.0°F-3.9°C 64% 17.0 mph WSW27.4 kmh WSW 27.0 mph43.5 kmh 29.82 in1009.8 mb 0.00 in0.0 mm 0.00 in0.0 mm 0.05 in1.3 mm
12:30 PM 36.3°F2.4°C 25.1°F-3.8°C 64% 10.0 mph WSW16.1 kmh WSW 27.0 mph43.5 kmh 29.82 in1009.8 mb 0.00 in0.0 mm 0.00 in0.0 mm 0.05 in1.3 mm
12:35 PM 36.4°F2.4°C 25.2°F-3.8°C 64% 20.0 mph SW32.2 kmh SW 30.0 mph48.3 kmh 29.82 in1009.8 mb 0.00 in0.0 mm 0.00 in0.0 mm 0.05 in1.3 mm
12:40 PM 36.2°F2.3°C 25.4°F-3.7°C 65% 11.0 mph WSW17.7 kmh WSW 30.0 mph48.3 kmh 29.83 in1010.2 mb 0.00 in0.0 mm 0.00 in0.0 mm 0.05 in1.3 mm
12:45 PM 36.6°F2.6°C 26.2°F-3.2°C 66% 13.0 mph W20.9 kmh W 30.0 mph48.3 kmh 29.83 in1010.2 mb 0.00 in0.0 mm 0.00 in0.0 mm 0.05 in1.3 mm
12:50 PM 37.0°F2.8°C 26.2°F-3.2°C 65% 22.0 mph WSW35.4 kmh WSW 30.0 mph48.3 kmh 29.83 in1010.2 mb 0.00 in0.0 mm 0.00 in0.0 mm 0.05 in1.3 mm
12:55 PM 37.4°F3.0°C 26.9°F-2.8°C 66% 14.0 mph WSW22.5 kmh WSW 23.0 mph37.0 kmh 29.84 in1010.5 mb 0.00 in0.0 mm 0.00 in0.0 mm 0.05 in1.3 mm
01:00 PM 37.6°F3.1°C 26.7°F-2.9°C 65% 11.0 mph WSW17.7 kmh WSW 23.0 mph37.0 kmh 29.84 in1010.5 mb 0.00 in0.0 mm 0.00 in0.0 mm 0.05 in1.3 mm
01:05 PM 37.6°F3.1°C 26.7°F-2.9°C 65% 12.0 mph WSW19.3 kmh WSW 21.0 mph33.8 kmh 29.84 in1010.5 mb 0.00 in0.0 mm 0.00 in0.0 mm 0.05 in1.3 mm
01:10 PM 37.2°F2.9°C 26.0°F-3.3°C 64% 16.0 mph SW25.7 kmh SW 22.0 mph35.4 kmh 29.84 in1010.5 mb 0.00 in0.0 mm 0.00 in0.0 mm 0.05 in1.3 mm
01:15 PM 36.9°F2.7°C 25.7°F-3.5°C 64% 9.0 mph W14.5 kmh W 22.0 mph35.4 kmh 29.85 in1010.8 mb 0.00 in0.0 mm 0.00 in0.0 mm 0.05 in1.3 mm
01:20 PM 36.8°F2.7°C 26.4°F-3.1°C 66% 14.0 mph W22.5 kmh W 25.0 mph40.2 kmh 29.85 in1010.8 mb 0.00 in0.0 mm 0.00 in0.0 mm 0.05 in1.3 mm
01:25 PM 36.8°F2.7°C 26.0°F-3.3°C 65% 9.0 mph WSW14.5 kmh WSW 25.0 mph40.2 kmh 29.86 in1011.2 mb 0.00 in0.0 mm 0.00 in0.0 mm 0.05 in1.3 mm
01:30 PM 36.7°F2.6°C 25.5°F-3.6°C 64% 13.0 mph WSW20.9 kmh WSW 26.0 mph41.8 kmh 29.86 in1011.2 mb 0.00 in0.0 mm 0.00 in0.0 mm 0.05 in1.3 mm
01:35 PM 36.7°F2.6°C 25.1°F-3.8°C 63% 14.0 mph WSW22.5 kmh WSW 26.0 mph41.8 kmh 29.86 in1011.2 mb 0.00 in0.0 mm 0.00 in0.0 mm 0.05 in1.3 mm
01:40 PM 36.8°F2.7°C 25.2°F-3.8°C 63% 11.0 mph WSW17.7 kmh WSW 26.0 mph41.8 kmh 29.86 in1011.2 mb 0.00 in0.0 mm 0.00 in0.0 mm 0.05 in1.3 mm
01:45 PM 36.4°F2.4°C 25.6°F-3.6°C 65% 11.0 mph W17.7 kmh W 26.0 mph41.8 kmh 29.87 in1011.5 mb 0.00 in0.0 mm 0.00 in0.0 mm 0.05 in1.3 mm
01:50 PM 36.1°F2.3°C 26.1°F-3.3°C 67% 7.0 mph SSW11.3 kmh SSW 26.0 mph41.8 kmh 29.88 in1011.9 mb 0.00 in0.0 mm 0.00 in0.0 mm 0.05 in1.3 mm
01:55 PM 36.2°F2.3°C 26.2°F-3.2°C 67% 16.0 mph WNW25.7 kmh WNW 26.0 mph41.8 kmh 29.88 in1011.9 mb 0.00 in0.0 mm 0.00 in0.0 mm 0.05 in1.3 mm
02:00 PM 36.1°F2.3°C 25.7°F-3.5°C 66% 16.0 mph WSW25.7 kmh WSW 23.0 mph37.0 kmh 29.88 in1011.9 mb 0.00 in0.0 mm 0.00 in0.0 mm 0.05 in1.3 mm
02:05 PM 35.9°F2.2°C 25.5°F-3.6°C 66% 9.0 mph WSW14.5 kmh WSW 23.0 mph37.0 kmh 29.89 in1012.2 mb 0.00 in0.0 mm 0.00 in0.0 mm 0.05 in1.3 mm
02:10 PM 35.6°F2.0°C 26.0°F-3.3°C 68% 6.0 mph SW9.7 kmh SW 22.0 mph35.4 kmh 29.89 in1012.2 mb 0.00 in0.0 mm 0.00 in0.0 mm 0.05 in1.3 mm
02:15 PM 35.5°F1.9°C 26.2°F-3.2°C 69% 9.0 mph SW14.5 kmh SW 22.0 mph35.4 kmh 29.89 in1012.2 mb 0.00 in0.0 mm 0.00 in0.0 mm 0.05 in1.3 mm
02:20 PM 35.7°F2.1°C 26.0°F-3.3°C 68% 7.0 mph W11.3 kmh W 20.0 mph32.2 kmh 29.89 in1012.2 mb 0.00 in0.0 mm 0.00 in0.0 mm 0.05 in1.3 mm
02:25 PM 35.6°F2.0°C 26.0°F-3.3°C 68% 16.0 mph WSW25.7 kmh WSW 24.0 mph38.6 kmh 29.90 in1012.5 mb 0.00 in0.0 mm 0.00 in0.0 mm 0.05 in1.3 mm
02:30 PM 35.6°F2.0°C 25.6°F-3.6°C 67% 20.0 mph WSW32.2 kmh WSW 28.0 mph45.1 kmh 29.90 in1012.5 mb 0.00 in0.0 mm 0.00 in0.0 mm 0.05 in1.3 mm
02:35 PM 36.1°F2.3°C 25.3°F-3.7°C 65% 8.0 mph W12.9 kmh W 28.0 mph45.1 kmh 29.90 in1012.5 mb 0.00 in0.0 mm 0.00 in0.0 mm 0.05 in1.3 mm
02:40 PM 36.2°F2.3°C 24.6°F-4.1°C 63% 11.0 mph SW17.7 kmh SW 28.0 mph45.1 kmh 29.91 in1012.9 mb 0.00 in0.0 mm 0.00 in0.0 mm 0.05 in1.3 mm
02:45 PM 36.4°F2.4°C 24.8°F-4.0°C 63% 14.0 mph WNW22.5 kmh WNW 28.0 mph45.1 kmh 29.91 in1012.9 mb 0.00 in0.0 mm 0.00 in0.0 mm 0.05 in1.3 mm
02:50 PM 36.5°F2.5°C 24.5°F-4.2°C 62% 9.0 mph WSW14.5 kmh WSW 23.0 mph37.0 kmh 29.92 in1013.2 mb 0.00 in0.0 mm 0.00 in0.0 mm 0.05 in1.3 mm
02:55 PM 36.2°F2.3°C 24.6°F-4.1°C 63% 13.0 mph WSW20.9 kmh WSW 28.0 mph45.1 kmh 29.92 in1013.2 mb 0.00 in0.0 mm 0.00 in0.0 mm 0.05 in1.3 mm
03:00 PM 36.2°F2.3°C 24.2°F-4.3°C 62% 13.0 mph WSW20.9 kmh WSW 28.0 mph45.1 kmh 29.92 in1013.2 mb 0.00 in0.0 mm 0.00 in0.0 mm 0.05 in1.3 mm
03:05 PM 36.4°F2.4°C 24.4°F-4.2°C 62% 19.0 mph NW30.6 kmh NW 29.0 mph46.7 kmh 29.92 in1013.2 mb 0.00 in0.0 mm 0.00 in0.0 mm 0.05 in1.3 mm
03:10 PM 36.4°F2.4°C 23.6°F-4.7°C 60% 20.0 mph W32.2 kmh W 29.0 mph46.7 kmh 29.93 in1013.5 mb 0.00 in0.0 mm 0.00 in0.0 mm 0.05 in1.3 mm
03:15 PM 36.4°F2.4°C 23.2°F-4.9°C 59% 14.0 mph WSW22.5 kmh WSW 30.0 mph48.3 kmh 29.92 in1013.2 mb 0.00 in0.0 mm 0.00 in0.0 mm 0.05 in1.3 mm
03:20 PM 36.7°F2.6°C 23.5°F-4.7°C 59% 19.0 mph NW30.6 kmh NW 30.0 mph48.3 kmh 29.93 in1013.5 mb 0.00 in0.0 mm 0.00 in0.0 mm 0.05 in1.3 mm
03:25 PM 36.7°F2.6°C 23.1°F-4.9°C 58% 16.0 mph W25.7 kmh W 30.0 mph48.3 kmh 29.93 in1013.5 mb 0.00 in0.0 mm 0.00 in0.0 mm 0.05 in1.3 mm
03:30 PM 36.5°F2.5°C 22.9°F-5.1°C 58% 9.0 mph W14.5 kmh W 30.0 mph48.3 kmh 29.93 in1013.5 mb 0.00 in0.0 mm 0.00 in0.0 mm 0.05 in1.3 mm
03:35 PM 36.3°F2.4°C 22.3°F-5.4°C 57% 14.0 mph W22.5 kmh W 26.0 mph41.8 kmh 29.94 in1013.9 mb 0.00 in0.0 mm 0.00 in0.0 mm 0.05 in1.3 mm
03:40 PM 35.9°F2.2°C 22.7°F-5.2°C 59% 9.0 mph W14.5 kmh W 28.0 mph45.1 kmh 29.93 in1013.5 mb 0.00 in0.0 mm 0.00 in0.0 mm 0.05 in1.3 mm
03:45 PM 36.1°F2.3°C 23.3°F-4.8°C 60% 13.0 mph WSW20.9 kmh WSW 28.0 mph45.1 kmh 29.94 in1013.9 mb 0.00 in0.0 mm 0.00 in0.0 mm 0.05 in1.3 mm
03:50 PM 36.3°F2.4°C 23.1°F-4.9°C 59% 12.0 mph SW19.3 kmh SW 28.0 mph45.1 kmh 29.94 in1013.9 mb 0.00 in0.0 mm 0.00 in0.0 mm 0.05 in1.3 mm
03:55 PM 36.0°F2.2°C 22.4°F-5.3°C 58% 10.0 mph W16.1 kmh W 28.0 mph45.1 kmh 29.94 in1013.9 mb 0.00 in0.0 mm 0.00 in0.0 mm 0.05 in1.3 mm
04:00 PM 35.8°F2.1°C 22.6°F-5.2°C 59% 16.0 mph NW25.7 kmh NW 23.0 mph37.0 kmh 29.94 in1013.9 mb 0.00 in0.0 mm 0.00 in0.0 mm 0.05 in1.3 mm
04:05 PM 35.6°F2.0°C 22.5°F-5.3°C 59% 13.0 mph WNW20.9 kmh WNW 23.0 mph37.0 kmh 29.95 in1014.2 mb 0.00 in0.0 mm 0.00 in0.0 mm 0.05 in1.3 mm
04:10 PM 35.3°F1.8°C 22.6°F-5.2°C 60% 4.0 mph W6.4 kmh W 23.0 mph37.0 kmh 29.95 in1014.2 mb 0.00 in0.0 mm 0.00 in0.0 mm 0.05 in1.3 mm
04:15 PM 35.1°F1.7°C 22.8°F-5.1°C 61% 14.0 mph WSW22.5 kmh WSW 28.0 mph45.1 kmh 29.96 in1014.6 mb 0.00 in0.0 mm 0.00 in0.0 mm 0.05 in1.3 mm
04:20 PM 34.7°F1.5°C 23.2°F-4.9°C 63% 16.0 mph WSW25.7 kmh WSW 28.0 mph45.1 kmh 29.96 in1014.6 mb 0.00 in0.0 mm 0.00 in0.0 mm 0.05 in1.3 mm
04:25 PM 34.4°F1.3°C 22.9°F-5.1°C 63% 10.0 mph W16.1 kmh W 28.0 mph45.1 kmh 29.96 in1014.6 mb 0.00 in0.0 mm 0.00 in0.0 mm 0.05 in1.3 mm
04:30 PM 34.4°F1.3°C 22.1°F-5.5°C 61% 9.0 mph W14.5 kmh W 28.0 mph45.1 kmh 29.96 in1014.6 mb 0.00 in0.0 mm 0.00 in0.0 mm 0.05 in1.3 mm
04:35 PM 34.3°F1.3°C 22.8°F-5.1°C 63% 12.0 mph WSW19.3 kmh WSW 25.0 mph40.2 kmh 29.97 in1014.9 mb 0.00 in0.0 mm 0.00 in0.0 mm 0.05 in1.3 mm
04:40 PM 34.1°F1.2°C 22.6°F-5.2°C 63% 9.0 mph WSW14.5 kmh WSW 25.0 mph40.2 kmh 29.97 in1014.9 mb 0.00 in0.0 mm 0.00 in0.0 mm 0.05 in1.3 mm
04:45 PM 34.1°F1.2°C 23.0°F-5.0°C 64% 9.0 mph W14.5 kmh W 23.0 mph37.0 kmh 29.98 in1015.2 mb 0.00 in0.0 mm 0.00 in0.0 mm 0.05 in1.3 mm
04:50 PM 34.1°F1.2°C 22.3°F-5.4°C 62% 10.0 mph W16.1 kmh W 23.0 mph37.0 kmh 29.97 in1014.9 mb 0.00 in0.0 mm 0.00 in0.0 mm 0.05 in1.3 mm
04:55 PM 34.0°F1.1°C 21.8°F-5.7°C 61% 16.0 mph W25.7 kmh W 23.0 mph37.0 kmh 29.98 in1015.2 mb 0.00 in0.0 mm 0.00 in0.0 mm 0.05 in1.3 mm
05:00 PM 33.9°F1.1°C 21.7°F-5.7°C 61% 9.0 mph W14.5 kmh W 26.0 mph41.8 kmh 29.98 in1015.2 mb 0.00 in0.0 mm 0.00 in0.0 mm 0.05 in1.3 mm
05:05 PM 33.7°F0.9°C 21.9°F-5.6°C 62% 11.0 mph W17.7 kmh W 26.0 mph41.8 kmh 29.99 in1015.6 mb 0.00 in0.0 mm 0.00 in0.0 mm 0.05 in1.3 mm
05:10 PM 33.7°F0.9°C 21.9°F-5.6°C 62% 7.0 mph SW11.3 kmh SW 26.0 mph41.8 kmh 29.99 in1015.6 mb 0.00 in0.0 mm 0.00 in0.0 mm 0.05 in1.3 mm
05:15 PM 33.8°F1.0°C 21.6°F-5.8°C 61% 9.0 mph W14.5 kmh W 26.0 mph41.8 kmh 29.99 in1015.6 mb 0.00 in0.0 mm 0.00 in0.0 mm 0.05 in1.3 mm
05:20 PM 33.8°F1.0°C 21.6°F-5.8°C 61% 9.0 mph WSW14.5 kmh WSW 26.0 mph41.8 kmh 30.00 in1015.9 mb 0.00 in0.0 mm 0.00 in0.0 mm 0.05 in1.3 mm
05:25 PM 33.7°F0.9°C 21.9°F-5.6°C 62% 15.0 mph W24.1 kmh W 26.0 mph41.8 kmh 30.00 in1015.9 mb 0.00 in0.0 mm 0.00 in0.0 mm 0.05 in1.3 mm
05:30 PM 33.7°F0.9°C 21.5°F-5.8°C 61% 14.0 mph NW22.5 kmh NW 26.0 mph41.8 kmh 30.00 in1015.9 mb 0.00 in0.0 mm 0.00 in0.0 mm 0.05 in1.3 mm
05:35 PM 33.5°F0.8°C 21.3°F-5.9°C 61% 9.0 mph W14.5 kmh W 26.0 mph41.8 kmh 30.00 in1015.9 mb 0.00 in0.0 mm 0.00 in0.0 mm 0.05 in1.3 mm
05:40 PM 33.5°F0.8°C 21.3°F-5.9°C 61% 24.0 mph WNW38.6 kmh WNW 25.0 mph40.2 kmh 30.01 in1016.3 mb 0.00 in0.0 mm 0.00 in0.0 mm 0.05 in1.3 mm
05:45 PM 33.4°F0.8°C 22.0°F-5.6°C 63% 9.0 mph W14.5 kmh W 25.0 mph40.2 kmh 30.01 in1016.3 mb 0.00 in0.0 mm 0.00 in0.0 mm 0.05 in1.3 mm
05:50 PM 33.2°F0.7°C 22.2°F-5.4°C 64% 15.0 mph WSW24.1 kmh WSW 29.0 mph46.7 kmh 30.02 in1016.6 mb 0.00 in0.0 mm 0.00 in0.0 mm 0.05 in1.3 mm
05:55 PM 33.0°F0.6°C 22.0°F-5.6°C 64% 6.0 mph WNW9.7 kmh WNW 29.0 mph46.7 kmh 30.02 in1016.6 mb 0.00 in0.0 mm 0.00 in0.0 mm 0.05 in1.3 mm
06:00 PM 33.0°F0.6°C 21.2°F-6.0°C 62% 12.0 mph W19.3 kmh W 29.0 mph46.7 kmh 30.02 in1016.6 mb 0.00 in0.0 mm 0.00 in0.0 mm 0.05 in1.3 mm
06:05 PM 33.1°F0.6°C 20.9°F-6.2°C 61% 7.0 mph WSW11.3 kmh WSW 29.0 mph46.7 kmh 30.02 in1016.6 mb 0.00 in0.0 mm 0.00 in0.0 mm 0.05 in1.3 mm
06:10 PM 33.2°F0.7°C 21.4°F-5.9°C 62% 14.0 mph NW22.5 kmh NW 20.0 mph32.2 kmh 30.03 in1016.9 mb 0.00 in0.0 mm 0.00 in0.0 mm 0.05 in1.3 mm
06:15 PM 33.2°F0.7°C 21.0°F-6.1°C 61% 11.0 mph W17.7 kmh W 25.0 mph40.2 kmh 30.03 in1016.9 mb 0.00 in0.0 mm 0.00 in0.0 mm 0.05 in1.3 mm
06:20 PM 33.1°F0.6°C 20.9°F-6.2°C 61% 11.0 mph WSW17.7 kmh WSW 30.0 mph48.3 kmh 30.03 in1016.9 mb 0.00 in0.0 mm 0.00 in0.0 mm 0.05 in1.3 mm
06:25 PM 33.1°F0.6°C 20.9°F-6.2°C 61% 15.0 mph W24.1 kmh W 30.0 mph48.3 kmh 30.04 in1017.3 mb 0.00 in0.0 mm 0.00 in0.0 mm 0.05 in1.3 mm
06:30 PM 33.1°F0.6°C 20.9°F-6.2°C 61% 14.0 mph W22.5 kmh W 30.0 mph48.3 kmh 30.04 in1017.3 mb 0.00 in0.0 mm 0.00 in0.0 mm 0.05 in1.3 mm
06:35 PM 33.0°F0.6°C 21.2°F-6.0°C 62% 9.0 mph WSW14.5 kmh WSW 30.0 mph48.3 kmh 30.04 in1017.3 mb 0.00 in0.0 mm 0.00 in0.0 mm 0.05 in1.3 mm
06:40 PM 32.8°F0.4°C 21.4°F-5.9°C 63% 9.0 mph WSW14.5 kmh WSW 23.0 mph37.0 kmh 30.04 in1017.3 mb 0.00 in0.0 mm 0.00 in0.0 mm 0.05 in1.3 mm
06:45 PM 32.8°F0.4°C 21.8°F-5.7°C 64% 8.0 mph W12.9 kmh W 23.0 mph37.0 kmh 30.05 in1017.6 mb 0.00 in0.0 mm 0.00 in0.0 mm 0.05 in1.3 mm
06:50 PM 32.7°F0.4°C 21.7°F-5.7°C 64% 10.0 mph WSW16.1 kmh WSW 22.0 mph35.4 kmh 30.05 in1017.6 mb 0.00 in0.0 mm 0.00 in0.0 mm 0.05 in1.3 mm
06:55 PM 32.6°F0.3°C 21.2°F-6.0°C 63% 10.0 mph WSW16.1 kmh WSW 24.0 mph38.6 kmh 30.05 in1017.6 mb 0.00 in0.0 mm 0.00 in0.0 mm 0.05 in1.3 mm
07:00 PM 32.5°F0.3°C 21.1°F-6.1°C 63% 18.0 mph W29.0 kmh W 25.0 mph40.2 kmh 30.06 in1017.9 mb 0.00 in0.0 mm 0.00 in0.0 mm 0.05 in1.3 mm
07:05 PM 32.4°F0.2°C 21.0°F-6.1°C 63% 9.0 mph W14.5 kmh W 25.0 mph40.2 kmh 30.06 in1017.9 mb 0.00 in0.0 mm 0.00 in0.0 mm 0.05 in1.3 mm
07:10 PM 32.5°F0.3°C 20.7°F-6.3°C 62% 12.0 mph WSW19.3 kmh WSW 25.0 mph40.2 kmh 30.06 in1017.9 mb 0.00 in0.0 mm 0.00 in0.0 mm 0.05 in1.3 mm
07:15 PM 32.5°F0.3°C 20.4°F-6.4°C 61% 15.0 mph W24.1 kmh W 30.0 mph48.3 kmh 30.07 in1018.3 mb 0.00 in0.0 mm 0.00 in0.0 mm 0.05 in1.3 mm
07:20 PM 32.6°F0.3°C 20.4°F-6.4°C 61% 8.0 mph W12.9 kmh W 30.0 mph48.3 kmh 30.07 in1018.3 mb 0.00 in0.0 mm 0.00 in0.0 mm 0.05 in1.3 mm
07:25 PM 32.5°F0.3°C 20.4°F-6.4°C 61% 11.0 mph WSW17.7 kmh WSW 30.0 mph48.3 kmh 30.07 in1018.3 mb 0.00 in0.0 mm 0.00 in0.0 mm 0.05 in1.3 mm
07:30 PM 32.5°F0.3°C 20.4°F-6.4°C 61% 10.0 mph W16.1 kmh W 30.0 mph48.3 kmh 30.08 in1018.6 mb 0.00 in0.0 mm 0.00 in0.0 mm 0.05 in1.3 mm
07:35 PM 32.5°F0.3°C 20.7°F-6.3°C 62% 9.0 mph W14.5 kmh W 22.0 mph35.4 kmh 30.08 in1018.6 mb 0.00 in0.0 mm 0.00 in0.0 mm 0.05 in1.3 mm
07:40 PM 32.4°F0.2°C 20.7°F-6.3°C 62% 10.0 mph W16.1 kmh W 26.0 mph41.8 kmh 30.08 in1018.6 mb 0.00 in0.0 mm 0.00 in0.0 mm 0.05 in1.3 mm
07:45 PM 32.3°F0.2°C 20.2°F-6.6°C 61% 17.0 mph WNW27.4 kmh WNW 26.0 mph41.8 kmh 30.08 in1018.6 mb 0.00 in0.0 mm 0.00 in0.0 mm 0.05 in1.3 mm
07:50 PM 32.3°F0.2°C 20.2°F-6.6°C 61% 17.0 mph W27.4 kmh W 26.0 mph41.8 kmh 30.08 in1018.6 mb 0.00 in0.0 mm 0.00 in0.0 mm 0.05 in1.3 mm
07:55 PM 32.3°F0.2°C 20.2°F-6.6°C 61% 13.0 mph WSW20.9 kmh WSW 26.0 mph41.8 kmh 30.08 in1018.6 mb 0.00 in0.0 mm 0.00 in0.0 mm 0.05 in1.3 mm
08:00 PM 32.3°F0.2°C 20.2°F-6.6°C 61% 9.0 mph WNW14.5 kmh WNW 26.0 mph41.8 kmh 30.09 in1019.0 mb 0.00 in0.0 mm 0.00 in0.0 mm 0.05 in1.3 mm
08:05 PM 32.4°F0.2°C 20.3°F-6.5°C 61% 9.0 mph W14.5 kmh W 31.0 mph49.9 kmh 30.09 in1019.0 mb 0.00 in0.0 mm 0.00 in0.0 mm 0.05 in1.3 mm
08:10 PM 32.3°F0.2°C 19.8°F-6.8°C 60% 15.0 mph WNW24.1 kmh WNW 31.0 mph49.9 kmh 30.09 in1019.0 mb 0.00 in0.0 mm 0.00 in0.0 mm 0.05 in1.3 mm
08:15 PM 32.3°F0.2°C 20.2°F-6.6°C 61% 15.0 mph NW24.1 kmh NW 31.0 mph49.9 kmh 30.10 in1019.3 mb 0.00 in0.0 mm 0.00 in0.0 mm 0.05 in1.3 mm
08:20 PM 32.2°F0.1°C 20.1°F-6.6°C 61% 7.0 mph WNW11.3 kmh WNW 31.0 mph49.9 kmh 30.10 in1019.3 mb 0.00 in0.0 mm 0.00 in0.0 mm 0.05 in1.3 mm
08:25 PM 32.1°F0.1°C 20.0°F-6.7°C 61% 9.0 mph WSW14.5 kmh WSW 26.0 mph41.8 kmh 30.10 in1019.3 mb 0.00 in0.0 mm 0.00 in0.0 mm 0.05 in1.3 mm
08:30 PM 32.0°F0.0°C 19.9°F-6.7°C 61% 15.0 mph WSW24.1 kmh WSW 26.0 mph41.8 kmh 30.11 in1019.6 mb 0.00 in0.0 mm 0.00 in0.0 mm 0.05 in1.3 mm
08:35 PM 31.9°F-0.1°C 20.2°F-6.6°C 62% 7.0 mph W11.3 kmh W 20.0 mph32.2 kmh 30.11 in1019.6 mb 0.00 in0.0 mm 0.00 in0.0 mm 0.05 in1.3 mm
08:40 PM 31.8°F-0.1°C 20.1°F-6.6°C 62% 14.0 mph NW22.5 kmh NW 20.0 mph32.2 kmh 30.11 in1019.6 mb 0.00 in0.0 mm 0.00 in0.0 mm 0.05 in1.3 mm
08:45 PM 31.8°F-0.1°C 20.5°F-6.4°C 63% 5.0 mph W8.0 kmh W 20.0 mph32.2 kmh 30.12 in1020.0 mb 0.00 in0.0 mm 0.00 in0.0 mm 0.05 in1.3 mm
08:50 PM 31.8°F-0.1°C 20.5°F-6.4°C 63% 8.0 mph W12.9 kmh W 20.0 mph32.2 kmh 30.12 in1020.0 mb 0.00 in0.0 mm 0.00 in0.0 mm 0.05 in1.3 mm
08:55 PM 31.8°F-0.1°C 20.1°F-6.6°C 62% 13.0 mph WSW20.9 kmh WSW 20.0 mph32.2 kmh 30.12 in1020.0 mb 0.00 in0.0 mm 0.00 in0.0 mm 0.05 in1.3 mm
09:00 PM 31.9°F-0.1°C 20.2°F-6.6°C 62% 7.0 mph WSW11.3 kmh WSW 18.0 mph29.0 kmh 30.13 in1020.3 mb 0.00 in0.0 mm 0.00 in0.0 mm 0.05 in1.3 mm
09:05 PM 31.9°F-0.1°C 20.2°F-6.6°C 62% 8.0 mph WNW12.9 kmh WNW 23.0 mph37.0 kmh 30.13 in1020.3 mb 0.00 in0.0 mm 0.00 in0.0 mm 0.05 in1.3 mm
09:10 PM 31.9°F-0.1°C 19.8°F-6.8°C 61% 9.0 mph WSW14.5 kmh WSW 23.0 mph37.0 kmh 30.13 in1020.3 mb 0.00 in0.0 mm 0.00 in0.0 mm 0.05 in1.3 mm
09:15 PM 31.9°F-0.1°C 19.8°F-6.8°C 61% 7.0 mph WSW11.3 kmh WSW 23.0 mph37.0 kmh 30.14 in1020.7 mb 0.00 in0.0 mm 0.00 in0.0 mm 0.05 in1.3 mm
09:20 PM 31.8°F-0.1°C 19.7°F-6.8°C 61% 12.0 mph W19.3 kmh W 23.0 mph37.0 kmh 30.14 in1020.7 mb 0.00 in0.0 mm 0.00 in0.0 mm 0.05 in1.3 mm
09:25 PM 31.8°F-0.1°C 19.7°F-6.8°C 61% 6.0 mph W9.7 kmh W 20.0 mph32.2 kmh 30.15 in1021.0 mb 0.00 in0.0 mm 0.00 in0.0 mm 0.05 in1.3 mm
09:30 PM 31.7°F-0.2°C 19.6°F-6.9°C 61% 13.0 mph W20.9 kmh W 20.0 mph32.2 kmh 30.14 in1020.7 mb 0.00 in0.0 mm 0.00 in0.0 mm 0.05 in1.3 mm
09:35 PM 31.7°F-0.2°C 19.6°F-6.9°C 61% 8.0 mph W12.9 kmh W 21.0 mph33.8 kmh 30.15 in1021.0 mb 0.00 in0.0 mm 0.00 in0.0 mm 0.05 in1.3 mm
09:40 PM 31.7°F-0.2°C 19.6°F-6.9°C 61% 8.0 mph W12.9 kmh W 21.0 mph33.8 kmh 30.15 in1021.0 mb 0.00 in0.0 mm 0.00 in0.0 mm 0.05 in1.3 mm
09:45 PM 31.7°F-0.2°C 19.2°F-7.1°C 60% 5.0 mph W8.0 kmh W 21.0 mph33.8 kmh 30.15 in1021.0 mb 0.00 in0.0 mm 0.00 in0.0 mm 0.05 in1.3 mm
09:50 PM 31.7°F-0.2°C 19.2°F-7.1°C 60% 7.0 mph W11.3 kmh W 21.0 mph33.8 kmh 30.16 in1021.3 mb 0.00 in0.0 mm 0.00 in0.0 mm 0.05 in1.3 mm
09:55 PM 31.7°F-0.2°C 18.8°F-7.3°C 59% 8.0 mph W12.9 kmh W 20.0 mph32.2 kmh 30.16 in1021.3 mb 0.00 in0.0 mm 0.00 in0.0 mm 0.05 in1.3 mm
10:00 PM 31.7°F-0.2°C 18.8°F-7.3°C 59% 8.0 mph W12.9 kmh W 20.0 mph32.2 kmh 30.16 in1021.3 mb 0.00 in0.0 mm 0.00 in0.0 mm 0.05 in1.3 mm
10:05 PM 31.7°F-0.2°C 18.4°F-7.6°C 58% 6.0 mph W9.7 kmh W 17.0 mph27.4 kmh 30.17 in1021.7 mb 0.00 in0.0 mm 0.00 in0.0 mm 0.05 in1.3 mm
10:10 PM 31.8°F-0.1°C 18.5°F-7.5°C 58% 4.0 mph W6.4 kmh W 17.0 mph27.4 kmh 30.17 in1021.7 mb 0.00 in0.0 mm 0.00 in0.0 mm 0.05 in1.3 mm
10:15 PM 31.8°F-0.1°C 18.5°F-7.5°C 58% 10.0 mph W16.1 kmh W 18.0 mph29.0 kmh 30.17 in1021.7 mb 0.00 in0.0 mm 0.00 in0.0 mm 0.05 in1.3 mm
10:20 PM 31.8°F-0.1°C 18.1°F-7.7°C 57% 6.0 mph W9.7 kmh W 18.0 mph29.0 kmh 30.17 in1021.7 mb 0.00 in0.0 mm 0.00 in0.0 mm 0.05 in1.3 mm
10:25 PM 31.7°F-0.2°C 17.5°F-8.1°C 56% 12.0 mph WSW19.3 kmh WSW 18.0 mph29.0 kmh 30.17 in1021.7 mb 0.00 in0.0 mm 0.00 in0.0 mm 0.05 in1.3 mm
10:30 PM 31.7°F-0.2°C 17.5°F-8.1°C 56% 5.0 mph WSW8.0 kmh WSW 18.0 mph29.0 kmh 30.17 in1021.7 mb 0.00 in0.0 mm 0.00 in0.0 mm 0.05 in1.3 mm
10:35 PM 31.7°F-0.2°C 17.1°F-8.3°C 55% 6.0 mph W9.7 kmh W 16.0 mph25.7 kmh 30.17 in1021.7 mb 0.00 in0.0 mm 0.00 in0.0 mm 0.05 in1.3 mm
10:40 PM 31.7°F-0.2°C 16.7°F-8.5°C 54% 9.0 mph W14.5 kmh W 20.0 mph32.2 kmh 30.17 in1021.7 mb 0.00 in0.0 mm 0.00 in0.0 mm 0.05 in1.3 mm
10:45 PM 31.7°F-0.2°C 16.7°F-8.5°C 54% 17.0 mph WSW27.4 kmh WSW 20.0 mph32.2 kmh 30.18 in1022.0 mb 0.00 in0.0 mm 0.00 in0.0 mm 0.05 in1.3 mm
10:50 PM 31.7°F-0.2°C 16.2°F-8.8°C 53% 8.0 mph WSW12.9 kmh WSW 21.0 mph33.8 kmh 30.18 in1022.0 mb 0.00 in0.0 mm 0.00 in0.0 mm 0.05 in1.3 mm
10:55 PM 31.7°F-0.2°C 16.2°F-8.8°C 53% 5.0 mph WSW8.0 kmh WSW 21.0 mph33.8 kmh 30.18 in1022.0 mb 0.00 in0.0 mm 0.00 in0.0 mm 0.05 in1.3 mm
11:00 PM 31.7°F-0.2°C 16.2°F-8.8°C 53% 8.0 mph W12.9 kmh W 21.0 mph33.8 kmh 30.18 in1022.0 mb 0.00 in0.0 mm 0.00 in0.0 mm 0.05 in1.3 mm
11:05 PM 31.7°F-0.2°C 16.2°F-8.8°C 53% 13.0 mph WNW20.9 kmh WNW 21.0 mph33.8 kmh 30.18 in1022.0 mb 0.00 in0.0 mm 0.00 in0.0 mm 0.05 in1.3 mm
11:10 PM 31.6°F-0.2°C 16.1°F-8.8°C 53% 6.0 mph WNW9.7 kmh WNW 20.0 mph32.2 kmh 30.18 in1022.0 mb 0.00 in0.0 mm 0.00 in0.0 mm 0.05 in1.3 mm
11:15 PM 31.5°F-0.3°C 16.0°F-8.9°C 53% 6.0 mph WSW9.7 kmh WSW 20.0 mph32.2 kmh 30.18 in1022.0 mb 0.00 in0.0 mm 0.00 in0.0 mm 0.05 in1.3 mm
11:20 PM 31.5°F-0.3°C 16.0°F-8.9°C 53% 8.0 mph W12.9 kmh W 16.0 mph25.7 kmh 30.18 in1022.0 mb 0.00 in0.0 mm 0.00 in0.0 mm 0.05 in1.3 mm
11:25 PM 31.4°F-0.3°C 15.9°F-8.9°C 53% 6.0 mph W9.7 kmh W 21.0 mph33.8 kmh 30.18 in1022.0 mb 0.00 in0.0 mm 0.00 in0.0 mm 0.05 in1.3 mm
11:30 PM 31.3°F-0.4°C 16.3°F-8.7°C 54% 8.0 mph WSW12.9 kmh WSW 21.0 mph33.8 kmh 30.18 in1022.0 mb 0.00 in0.0 mm 0.00 in0.0 mm 0.05 in1.3 mm
11:35 PM 31.3°F-0.4°C 15.9°F-8.9°C 53% 7.0 mph NW11.3 kmh NW 23.0 mph37.0 kmh 30.18 in1022.0 mb 0.00 in0.0 mm 0.00 in0.0 mm 0.05 in1.3 mm
11:40 PM 31.2°F-0.4°C 15.8°F-9.0°C 53% 13.0 mph WNW20.9 kmh WNW 23.0 mph37.0 kmh 30.18 in1022.0 mb 0.00 in0.0 mm 0.00 in0.0 mm 0.05 in1.3 mm
11:45 PM 31.1°F-0.5°C 15.7°F-9.1°C 53% 7.0 mph W11.3 kmh W 23.0 mph37.0 kmh 30.18 in1022.0 mb 0.00 in0.0 mm 0.00 in0.0 mm 0.05 in1.3 mm
11:50 PM 31.1°F-0.5°C 16.1°F-8.8°C 54% 6.0 mph WNW9.7 kmh WNW 23.0 mph37.0 kmh 30.18 in1022.0 mb 0.00 in0.0 mm 0.00 in0.0 mm 0.05 in1.3 mm
11:55 PM 31.0°F-0.6°C 16.0°F-8.9°C 54% 9.0 mph WNW14.5 kmh WNW 21.0 mph33.8 kmh 30.18 in1022.0 mb 0.00 in0.0 mm 0.00 in0.0 mm 0.05 in1.3 mm